ESPA

Luleå Airport

Luleå, Sweden
METAR ESPA 151620Z 32001KT CAVOK M21/M23 Q1033
Observed Flight Rules
Dec-15 @ 16:20 UTC (21 minutes ago) Visual Flight Rules
Wind Visibility Clouds
320° at 1 knots 10,000+ meters
  • Clear skies
Temperatures Readings
Current -21°C / -6°F
Dewpoint -23°C / -9°F
Humidity 84%
Altimeter 30.5" Hg
Pressure 1033 hPa
Elevation 34
METAR ESPA 151620Z 32001KT CAVOK M21/M23 Q1033
Observed Flight Rules
Dec-15 @ 16:20 UTC
(21 minutes ago)
VFR
Wind Visibility
320° at 1 knots 10,000+ meters
Clouds
  • Clear skies
Temperature Dewpoint
-21°C / -6°F -23°C / -9°F
Humidity Altimeter Pressure
84% 30.5" Hg 1033 hPa